sensor_id;sensor_type;location;lat;lon;timestamp;temperature;humidity
74178;DHT22;62540;48.456;-4.456;2023-07-13T00:02:16;20.21;65.10
74178;DHT22;62540;48.456;-4.456;2023-07-13T00:04:41;20.26;65.04
74178;DHT22;62540;48.456;-4.456;2023-07-13T00:07:07;20.28;64.99
74178;DHT22;62540;48.456;-4.456;2023-07-13T00:09:33;20.33;64.92
74178;DHT22;62540;48.456;-4.456;2023-07-13T00:11:58;20.38;64.89
74178;DHT22;62540;48.456;-4.456;2023-07-13T00:14:26;20.38;64.84
74178;DHT22;62540;48.456;-4.456;2023-07-13T00:16:52;20.41;64.91
74178;DHT22;62540;48.456;-4.456;2023-07-13T00:19:17;20.36;65.06
74178;DHT22;62540;48.456;-4.456;2023-07-13T00:21:43;20.39;65.10
74178;DHT22;62540;48.456;-4.456;2023-07-13T00:24:12;20.36;65.21
74178;DHT22;62540;48.456;-4.456;2023-07-13T00:26:41;20.32;65.32
74178;DHT22;62540;48.456;-4.456;2023-07-13T00:29:11;20.33;65.42
74178;DHT22;62540;48.456;-4.456;2023-07-13T00:31:37;20.35;65.38
74178;DHT22;62540;48.456;-4.456;2023-07-13T00:34:03;20.35;65.42
74178;DHT22;62540;48.456;-4.456;2023-07-13T00:36:30;20.28;65.61
74178;DHT22;62540;48.456;-4.456;2023-07-13T00:38:55;20.24;65.74
74178;DHT22;62540;48.456;-4.456;2023-07-13T00:41:21;20.21;65.87
74178;DHT22;62540;48.456;-4.456;2023-07-13T00:43:46;20.24;65.91
74178;DHT22;62540;48.456;-4.456;2023-07-13T00:46:19;20.25;65.95
74178;DHT22;62540;48.456;-4.456;2023-07-13T00:48:47;20.25;66.08
74178;DHT22;62540;48.456;-4.456;2023-07-13T00:51:13;20.24;66.16
74178;DHT22;62540;48.456;-4.456;2023-07-13T00:53:41;20.24;66.21
74178;DHT22;62540;48.456;-4.456;2023-07-13T00:56:06;20.22;66.30
74178;DHT22;62540;48.456;-4.456;2023-07-13T00:58:33;20.21;66.48
74178;DHT22;62540;48.456;-4.456;2023-07-13T01:00:58;20.20;66.41
74178;DHT22;62540;48.456;-4.456;2023-07-13T01:03:24;20.20;66.73
74178;DHT22;62540;48.456;-4.456;2023-07-13T01:05:50;20.18;66.51
74178;DHT22;62540;48.456;-4.456;2023-07-13T01:08:16;20.11;66.71
74178;DHT22;62540;48.456;-4.456;2023-07-13T01:10:51;20.11;66.87
74178;DHT22;62540;48.456;-4.456;2023-07-13T01:13:17;20.11;66.58
74178;DHT22;62540;48.456;-4.456;2023-07-13T01:15:45;20.15;66.43
74178;DHT22;62540;48.456;-4.456;2023-07-13T01:18:15;20.18;66.25
74178;DHT22;62540;48.456;-4.456;2023-07-13T01:20:41;20.18;66.20
74178;DHT22;62540;48.456;-4.456;2023-07-13T01:23:09;20.14;66.16
74178;DHT22;62540;48.456;-4.456;2023-07-13T01:25:36;20.14;66.04
74178;DHT22;62540;48.456;-4.456;2023-07-13T01:28:06;20.15;65.91
74178;DHT22;62540;48.456;-4.456;2023-07-13T01:30:35;20.15;65.86
74178;DHT22;62540;48.456;-4.456;2023-07-13T01:33:00;20.15;65.78
74178;DHT22;62540;48.456;-4.456;2023-07-13T01:35:26;20.20;65.69
74178;DHT22;62540;48.456;-4.456;2023-07-13T01:37:52;20.22;65.66
74178;DHT22;62540;48.456;-4.456;2023-07-13T01:40:18;20.22;65.58
74178;DHT22;62540;48.456;-4.456;2023-07-13T01:42:43;20.24;65.58
74178;DHT22;62540;48.456;-4.456;2023-07-13T01:45:09;20.24;65.51
74178;DHT22;62540;48.456;-4.456;2023-07-13T01:47:35;20.24;65.53
74178;DHT22;62540;48.456;-4.456;2023-07-13T01:50:00;20.25;65.51
74178;DHT22;62540;48.456;-4.456;2023-07-13T01:52:25;20.29;65.39
74178;DHT22;62540;48.456;-4.456;2023-07-13T01:54:51;20.25;65.41
74178;DHT22;62540;48.456;-4.456;2023-07-13T01:57:16;20.20;65.52
74178;DHT22;62540;48.456;-4.456;2023-07-13T01:59:42;20.22;65.57
74178;DHT22;62540;48.456;-4.456;2023-07-13T02:02:07;20.21;65.58
74178;DHT22;62540;48.456;-4.456;2023-07-13T02:04:33;20.21;65.56
74178;DHT22;62540;48.456;-4.456;2023-07-13T02:06:58;20.21;65.56
74178;DHT22;62540;48.456;-4.456;2023-07-13T02:09:24;20.15;65.79
74178;DHT22;62540;48.456;-4.456;2023-07-13T02:11:49;20.17;65.74
74178;DHT22;62540;48.456;-4.456;2023-07-13T02:14:14;20.15;65.71
74178;DHT22;62540;48.456;-4.456;2023-07-13T02:16:41;20.14;65.82
74178;DHT22;62540;48.456;-4.456;2023-07-13T02:19:07;20.12;65.87
74178;DHT22;62540;48.456;-4.456;2023-07-13T02:21:32;20.02;66.13
74178;DHT22;62540;48.456;-4.456;2023-07-13T02:23:57;20.04;66.15
74178;DHT22;62540;48.456;-4.456;2023-07-13T02:26:23;20.00;66.33
74178;DHT22;62540;48.456;-4.456;2023-07-13T02:28:48;19.97;66.44
74178;DHT22;62540;48.456;-4.456;2023-07-13T02:31:15;19.98;66.49
74178;DHT22;62540;48.456;-4.456;2023-07-13T02:33:41;19.93;66.71
74178;DHT22;62540;48.456;-4.456;2023-07-13T02:36:07;19.93;66.77
74178;DHT22;62540;48.456;-4.456;2023-07-13T02:38:33;19.90;66.88
74178;DHT22;62540;48.456;-4.456;2023-07-13T02:40:59;19.90;66.85
74178;DHT22;62540;48.456;-4.456;2023-07-13T02:43:25;19.88;66.98
74178;DHT22;62540;48.456;-4.456;2023-07-13T02:45:50;19.88;67.16
74178;DHT22;62540;48.456;-4.456;2023-07-13T02:48:16;19.90;67.12
74178;DHT22;62540;48.456;-4.456;2023-07-13T02:50:42;19.91;67.10
74178;DHT22;62540;48.456;-4.456;2023-07-13T02:53:08;19.87;67.30
74178;DHT22;62540;48.456;-4.456;2023-07-13T02:55:34;19.84;67.39
74178;DHT22;62540;48.456;-4.456;2023-07-13T02:57:59;19.84;67.43
74178;DHT22;62540;48.456;-4.456;2023-07-13T03:00:25;19.80;67.59
74178;DHT22;62540;48.456;-4.456;2023-07-13T03:02:50;19.78;67.63
74178;DHT22;62540;48.456;-4.456;2023-07-13T03:05:15;19.75;67.99
74178;DHT22;62540;48.456;-4.456;2023-07-13T03:07:41;19.77;67.75
74178;DHT22;62540;48.456;-4.456;2023-07-13T03:10:08;19.75;67.72
74178;DHT22;62540;48.456;-4.456;2023-07-13T03:12:34;19.80;67.66
74178;DHT22;62540;48.456;-4.456;2023-07-13T03:14:59;19.81;67.74
74178;DHT22;62540;48.456;-4.456;2023-07-13T03:17:25;19.84;67.62
74178;DHT22;62540;48.456;-4.456;2023-07-13T03:19:50;19.84;67.62
74178;DHT22;62540;48.456;-4.456;2023-07-13T03:22:17;19.85;67.62
74178;DHT22;62540;48.456;-4.456;2023-07-13T03:24:43;19.87;67.68
74178;DHT22;62540;48.456;-4.456;2023-07-13T03:27:08;19.87;67.71
74178;DHT22;62540;48.456;-4.456;2023-07-13T03:29:34;19.87;67.83
74178;DHT22;62540;48.456;-4.456;2023-07-13T03:31:59;19.87;67.80
74178;DHT22;62540;48.456;-4.456;2023-07-13T03:34:25;19.88;67.84
74178;DHT22;62540;48.456;-4.456;2023-07-13T03:36:50;19.87;67.95
74178;DHT22;62540;48.456;-4.456;2023-07-13T03:39:18;19.81;68.11
74178;DHT22;62540;48.456;-4.456;2023-07-13T03:41:43;19.75;68.18
74178;DHT22;62540;48.456;-4.456;2023-07-13T03:44:09;19.77;68.17
74178;DHT22;62540;48.456;-4.456;2023-07-13T03:46:34;19.83;68.14
74178;DHT22;62540;48.456;-4.456;2023-07-13T03:49:00;19.83;68.17
74178;DHT22;62540;48.456;-4.456;2023-07-13T03:51:26;19.85;68.14
74178;DHT22;62540;48.456;-4.456;2023-07-13T03:53:51;19.83;68.16
74178;DHT22;62540;48.456;-4.456;2023-07-13T03:56:18;19.83;68.25
74178;DHT22;62540;48.456;-4.456;2023-07-13T03:58:45;19.85;68.26
74178;DHT22;62540;48.456;-4.456;2023-07-13T04:01:12;19.85;68.18
74178;DHT22;62540;48.456;-4.456;2023-07-13T04:03:39;19.84;68.26
74178;DHT22;62540;48.456;-4.456;2023-07-13T04:06:06;19.85;68.21
74178;DHT22;62540;48.456;-4.456;2023-07-13T04:08:35;19.90;68.12
74178;DHT22;62540;48.456;-4.456;2023-07-13T04:11:02;19.90;68.16
74178;DHT22;62540;48.456;-4.456;2023-07-13T04:13:28;19.90;68.17
74178;DHT22;62540;48.456;-4.456;2023-07-13T04:15:54;19.90;68.10
74178;DHT22;62540;48.456;-4.456;2023-07-13T04:18:20;19.91;68.11
74178;DHT22;62540;48.456;-4.456;2023-07-13T04:20:47;19.88;68.16
74178;DHT22;62540;48.456;-4.456;2023-07-13T04:23:13;19.88;68.19
74178;DHT22;62540;48.456;-4.456;2023-07-13T04:25:38;19.90;68.19
74178;DHT22;62540;48.456;-4.456;2023-07-13T04:28:04;19.88;68.18
74178;DHT22;62540;48.456;-4.456;2023-07-13T04:30:30;19.87;68.29
74178;DHT22;62540;48.456;-4.456;2023-07-13T04:32:55;19.88;68.16
74178;DHT22;62540;48.456;-4.456;2023-07-13T04:35:21;19.84;68.26
74178;DHT22;62540;48.456;-4.456;2023-07-13T04:37:50;19.87;68.18
74178;DHT22;62540;48.456;-4.456;2023-07-13T04:40:19;19.84;68.24
74178;DHT22;62540;48.456;-4.456;2023-07-13T04:42:45;19.81;68.29
74178;DHT22;62540;48.456;-4.456;2023-07-13T04:45:12;19.80;68.32
74178;DHT22;62540;48.456;-4.456;2023-07-13T04:47:38;19.81;68.30
74178;DHT22;62540;48.456;-4.456;2023-07-13T04:50:05;19.88;68.17
74178;DHT22;62540;48.456;-4.456;2023-07-13T04:52:30;19.87;68.18
74178;DHT22;62540;48.456;-4.456;2023-07-13T04:54:55;19.91;68.24
74178;DHT22;62540;48.456;-4.456;2023-07-13T04:57:21;19.88;68.24
74178;DHT22;62540;48.456;-4.456;2023-07-13T04:59:46;19.88;68.21
74178;DHT22;62540;48.456;-4.456;2023-07-13T05:02:12;19.93;68.23
74178;DHT22;62540;48.456;-4.456;2023-07-13T05:04:37;19.90;68.24
74178;DHT22;62540;48.456;-4.456;2023-07-13T05:07:03;19.93;68.25
74178;DHT22;62540;48.456;-4.456;2023-07-13T05:09:28;19.97;68.25
74178;DHT22;62540;48.456;-4.456;2023-07-13T05:11:53;19.98;68.23
74178;DHT22;62540;48.456;-4.456;2023-07-13T05:14:19;20.00;68.20
74178;DHT22;62540;48.456;-4.456;2023-07-13T05:16:44;19.98;68.32
74178;DHT22;62540;48.456;-4.456;2023-07-13T05:19:10;19.95;68.45
74178;DHT22;62540;48.456;-4.456;2023-07-13T05:21:35;19.91;68.47
74178;DHT22;62540;48.456;-4.456;2023-07-13T05:24:01;19.94;68.45
74178;DHT22;62540;48.456;-4.456;2023-07-13T05:26:26;20.00;68.38
74178;DHT22;62540;48.456;-4.456;2023-07-13T05:28:52;20.05;68.31
74178;DHT22;62540;48.456;-4.456;2023-07-13T05:31:17;20.04;68.39
74178;DHT22;62540;48.456;-4.456;2023-07-13T05:33:42;20.02;68.70
74178;DHT22;62540;48.456;-4.456;2023-07-13T05:36:08;19.93;69.07
74178;DHT22;62540;48.456;-4.456;2023-07-13T05:38:34;19.90;69.16
74178;DHT22;62540;48.456;-4.456;2023-07-13T05:40:59;19.93;69.13
74178;DHT22;62540;48.456;-4.456;2023-07-13T05:43:25;19.95;69.27
74178;DHT22;62540;48.456;-4.456;2023-07-13T05:45:55;20.02;69.10
74178;DHT22;62540;48.456;-4.456;2023-07-13T05:48:21;20.02;69.04
74178;DHT22;62540;48.456;-4.456;2023-07-13T05:50:46;20.04;69.04
74178;DHT22;62540;48.456;-4.456;2023-07-13T05:53:12;20.07;68.99
74178;DHT22;62540;48.456;-4.456;2023-07-13T05:55:45;20.11;69.08
74178;DHT22;62540;48.456;-4.456;2023-07-13T05:58:13;20.15;69.01
74178;DHT22;62540;48.456;-4.456;2023-07-13T06:00:38;20.20;68.91
74178;DHT22;62540;48.456;-4.456;2023-07-13T06:03:04;20.21;68.72
74178;DHT22;62540;48.456;-4.456;2023-07-13T06:05:29;20.24;68.72
74178;DHT22;62540;48.456;-4.456;2023-07-13T06:07:55;20.22;68.70
74178;DHT22;62540;48.456;-4.456;2023-07-13T06:10:20;20.24;68.71
74178;DHT22;62540;48.456;-4.456;2023-07-13T06:12:46;20.21;68.97
74178;DHT22;62540;48.456;-4.456;2023-07-13T06:15:11;20.22;68.97
74178;DHT22;62540;48.456;-4.456;2023-07-13T06:17:37;20.20;69.69
74178;DHT22;62540;48.456;-4.456;2023-07-13T06:20:02;20.10;69.54
74178;DHT22;62540;48.456;-4.456;2023-07-13T06:22:28;19.98;69.77
74178;DHT22;62540;48.456;-4.456;2023-07-13T06:24:53;19.94;69.99
74178;DHT22;62540;48.456;-4.456;2023-07-13T06:27:19;19.84;70.48
74178;DHT22;62540;48.456;-4.456;2023-07-13T06:29:44;19.80;70.62
74178;DHT22;62540;48.456;-4.456;2023-07-13T06:32:10;19.78;70.42
74178;DHT22;62540;48.456;-4.456;2023-07-13T06:34:36;19.81;70.37
74178;DHT22;62540;48.456;-4.456;2023-07-13T06:37:01;19.83;70.29
74178;DHT22;62540;48.456;-4.456;2023-07-13T06:39:26;19.87;70.39
74178;DHT22;62540;48.456;-4.456;2023-07-13T06:41:52;19.95;70.39
74178;DHT22;62540;48.456;-4.456;2023-07-13T06:44:17;20.02;70.33
74178;DHT22;62540;48.456;-4.456;2023-07-13T06:46:42;20.10;70.36
74178;DHT22;62540;48.456;-4.456;2023-07-13T06:49:08;20.15;70.37
74178;DHT22;62540;48.456;-4.456;2023-07-13T06:51:34;20.25;70.41
74178;DHT22;62540;48.456;-4.456;2023-07-13T06:53:59;20.38;70.44
74178;DHT22;62540;48.456;-4.456;2023-07-13T06:56:24;20.42;70.31
74178;DHT22;62540;48.456;-4.456;2023-07-13T06:58:50;20.55;70.18
74178;DHT22;62540;48.456;-4.456;2023-07-13T07:01:15;20.60;70.03
74178;DHT22;62540;48.456;-4.456;2023-07-13T07:03:41;20.68;70.03
74178;DHT22;62540;48.456;-4.456;2023-07-13T07:06:21;20.72;70.33
74178;DHT22;62540;48.456;-4.456;2023-07-13T07:08:48;20.83;70.14
74178;DHT22;62540;48.456;-4.456;2023-07-13T07:11:17;20.93;69.99
74178;DHT22;62540;48.456;-4.456;2023-07-13T07:13:43;20.96;69.94
74178;DHT22;62540;48.456;-4.456;2023-07-13T07:16:09;21.04;69.78
74178;DHT22;62540;48.456;-4.456;2023-07-13T07:18:34;21.12;69.66
74178;DHT22;62540;48.456;-4.456;2023-07-13T07:20:59;21.18;69.50
74178;DHT22;62540;48.456;-4.456;2023-07-13T07:23:25;21.26;69.59
74178;DHT22;62540;48.456;-4.456;2023-07-13T07:25:50;21.30;69.41
74178;DHT22;62540;48.456;-4.456;2023-07-13T07:28:17;21.27;69.17
74178;DHT22;62540;48.456;-4.456;2023-07-13T07:30:47;21.31;69.47
74178;DHT22;62540;48.456;-4.456;2023-07-13T07:33:13;21.39;69.35
74178;DHT22;62540;48.456;-4.456;2023-07-13T07:35:39;21.45;69.13
74178;DHT22;62540;48.456;-4.456;2023-07-13T07:38:04;21.48;68.85
74178;DHT22;62540;48.456;-4.456;2023-07-13T07:40:30;21.48;68.72
74178;DHT22;62540;48.456;-4.456;2023-07-13T07:42:56;21.48;68.65
74178;DHT22;62540;48.456;-4.456;2023-07-13T07:45:22;21.51;68.72
74178;DHT22;62540;48.456;-4.456;2023-07-13T07:47:47;21.49;68.51
74178;DHT22;62540;48.456;-4.456;2023-07-13T07:50:13;21.42;68.68
74178;DHT22;62540;48.456;-4.456;2023-07-13T07:52:38;21.28;68.95
74178;DHT22;62540;48.456;-4.456;2023-07-13T07:55:06;21.23;69.05
74178;DHT22;62540;48.456;-4.456;2023-07-13T07:57:31;21.21;69.18
74178;DHT22;62540;48.456;-4.456;2023-07-13T07:59:57;21.14;69.09
74178;DHT22;62540;48.456;-4.456;2023-07-13T08:02:23;21.12;69.34
74178;DHT22;62540;48.456;-4.456;2023-07-13T08:04:49;21.15;69.29
74178;DHT22;62540;48.456;-4.456;2023-07-13T08:07:14;21.06;69.45
74178;DHT22;62540;48.456;-4.456;2023-07-13T08:09:39;20.96;69.62
74178;DHT22;62540;48.456;-4.456;2023-07-13T08:12:05;20.89;69.82
74178;DHT22;62540;48.456;-4.456;2023-07-13T08:14:32;20.86;69.97
74178;DHT22;62540;48.456;-4.456;2023-07-13T08:16:57;20.80;70.15
74178;DHT22;62540;48.456;-4.456;2023-07-13T08:19:23;20.76;70.25
74178;DHT22;62540;48.456;-4.456;2023-07-13T08:21:49;20.87;70.43
74178;DHT22;62540;48.456;-4.456;2023-07-13T08:24:14;21.06;70.33
74178;DHT22;62540;48.456;-4.456;2023-07-13T08:39:23;21.71;68.93
74178;DHT22;62540;48.456;-4.456;2023-07-13T08:41:53;21.55;68.85
74178;DHT22;62540;48.456;-4.456;2023-07-13T08:44:27;21.52;68.82
74178;DHT22;62540;48.456;-4.456;2023-07-13T08:46:56;21.44;68.84
74178;DHT22;62540;48.456;-4.456;2023-07-13T08:49:25;21.48;68.87
74178;DHT22;62540;48.456;-4.456;2023-07-13T08:52:24;21.55;69.02
74178;DHT22;62540;48.456;-4.456;2023-07-13T08:54:52;21.65;68.85
74178;DHT22;62540;48.456;-4.456;2023-07-13T08:57:21;21.79;68.89
74178;DHT22;62540;48.456;-4.456;2023-07-13T08:59:50;21.85;68.72
74178;DHT22;62540;48.456;-4.456;2023-07-13T09:02:28;21.92;68.58
74178;DHT22;62540;48.456;-4.456;2023-07-13T09:05:02;22.05;68.69
74178;DHT22;62540;48.456;-4.456;2023-07-13T09:10:44;22.51;68.29
74178;DHT22;62540;48.456;-4.456;2023-07-13T09:13:17;22.71;67.77
74178;DHT22;62540;48.456;-4.456;2023-07-13T09:15:45;22.84;67.39
74178;DHT22;62540;48.456;-4.456;2023-07-13T09:18:37;22.98;66.66
74178;DHT22;62540;48.456;-4.456;2023-07-13T09:21:13;23.05;66.63
74178;DHT22;62540;48.456;-4.456;2023-07-13T09:23:39;23.09;67.22
74178;DHT22;62540;48.456;-4.456;2023-07-13T09:40:43;24.39;63.89
74178;DHT22;62540;48.456;-4.456;2023-07-13T09:43:13;24.43;63.09
74178;DHT22;62540;48.456;-4.456;2023-07-13T09:45:39;24.56;63.93
74178;DHT22;62540;48.456;-4.456;2023-07-13T09:48:12;24.79;63.61
74178;DHT22;62540;48.456;-4.456;2023-07-13T10:05:11;25.30;60.53
74178;DHT22;62540;48.456;-4.456;2023-07-13T10:07:41;25.21;61.14
74178;DHT22;62540;48.456;-4.456;2023-07-13T10:10:27;25.04;59.67
74178;DHT22;62540;48.456;-4.456;2023-07-13T10:12:52;24.77;60.93
74178;DHT22;62540;48.456;-4.456;2023-07-13T10:15:24;24.51;61.23
74178;DHT22;62540;48.456;-4.456;2023-07-13T10:17:54;24.39;61.78
74178;DHT22;62540;48.456;-4.456;2023-07-13T10:20:21;24.38;61.86
74178;DHT22;62540;48.456;-4.456;2023-07-13T10:23:04;24.32;61.45
74178;DHT22;62540;48.456;-4.456;2023-07-13T10:25:34;24.24;62.01
74178;DHT22;62540;48.456;-4.456;2023-07-13T10:28:26;24.08;61.52
74178;DHT22;62540;48.456;-4.456;2023-07-13T10:30:53;24.01;61.80
74178;DHT22;62540;48.456;-4.456;2023-07-13T10:33:22;23.80;61.61
74178;DHT22;62540;48.456;-4.456;2023-07-13T10:35:50;23.52;61.49
74178;DHT22;62540;48.456;-4.456;2023-07-13T10:38:23;23.52;62.24
74178;DHT22;62540;48.456;-4.456;2023-07-13T10:40:57;23.53;61.76
74178;DHT22;62540;48.456;-4.456;2023-07-13T10:46:11;23.18;62.71
74178;DHT22;62540;48.456;-4.456;2023-07-13T10:48:39;23.18;63.04
74178;DHT22;62540;48.456;-4.456;2023-07-13T10:51:06;23.12;63.33
74178;DHT22;62540;48.456;-4.456;2023-07-13T10:53:34;23.18;63.38
74178;DHT22;62540;48.456;-4.456;2023-07-13T10:56:22;23.23;63.31
74178;DHT22;62540;48.456;-4.456;2023-07-13T10:59:46;23.45;63.52
74178;DHT22;62540;48.456;-4.456;2023-07-13T11:04:21;24.04;63.38
74178;DHT22;62540;48.456;-4.456;2023-07-13T11:06:52;24.63;63.08
74178;DHT22;62540;48.456;-4.456;2023-07-13T11:09:34;25.38;60.85
74178;DHT22;62540;48.456;-4.456;2023-07-13T11:12:29;25.86;58.74
74178;DHT22;62540;48.456;-4.456;2023-07-13T11:15:13;26.20;60.30
74178;DHT22;62540;48.456;-4.456;2023-07-13T11:17:51;26.27;58.05
74178;DHT22;62540;48.456;-4.456;2023-07-13T11:22:51;26.12;58.54
74178;DHT22;62540;48.456;-4.456;2023-07-13T11:27:52;25.83;58.04
74178;DHT22;62540;48.456;-4.456;2023-07-13T11:30:25;25.96;58.00
74178;DHT22;62540;48.456;-4.456;2023-07-13T11:36:29;26.64;55.52
74178;DHT22;62540;48.456;-4.456;2023-07-13T11:39:03;26.87;54.71
74178;DHT22;62540;48.456;-4.456;2023-07-13T11:41:36;27.01;53.20
74178;DHT22;62540;48.456;-4.456;2023-07-13T11:44:19;26.96;51.14
74178;DHT22;62540;48.456;-4.456;2023-07-13T11:46:58;26.96;52.46
74178;DHT22;62540;48.456;-4.456;2023-07-13T11:49:30;26.80;53.24
74178;DHT22;62540;48.456;-4.456;2023-07-13T11:51:57;26.58;53.14
74178;DHT22;62540;48.456;-4.456;2023-07-13T11:56:56;26.61;53.04
74178;DHT22;62540;48.456;-4.456;2023-07-13T11:59:25;26.60;53.16
74178;DHT22;62540;48.456;-4.456;2023-07-13T12:01:52;26.60;53.17
74178;DHT22;62540;48.456;-4.456;2023-07-13T12:04:27;26.60;52.90
74178;DHT22;62540;48.456;-4.456;2023-07-13T12:07:17;26.64;51.23
74178;DHT22;62540;48.456;-4.456;2023-07-13T12:09:43;26.82;53.07
74178;DHT22;62540;48.456;-4.456;2023-07-13T12:12:14;26.98;52.57
74178;DHT22;62540;48.456;-4.456;2023-07-13T12:14:39;27.06;53.20
74178;DHT22;62540;48.456;-4.456;2023-07-13T12:17:16;27.18;52.49
74178;DHT22;62540;48.456;-4.456;2023-07-13T12:19:43;27.22;52.63
74178;DHT22;62540;48.456;-4.456;2023-07-13T12:22:11;27.15;52.42
74178;DHT22;62540;48.456;-4.456;2023-07-13T12:24:38;27.13;51.99
74178;DHT22;62540;48.456;-4.456;2023-07-13T12:27:05;27.25;52.55
74178;DHT22;62540;48.456;-4.456;2023-07-13T12:29:32;27.42;51.61
74178;DHT22;62540;48.456;-4.456;2023-07-13T12:31:57;27.53;51.56
74178;DHT22;62540;48.456;-4.456;2023-07-13T12:34:24;27.64;51.88
74178;DHT22;62540;48.456;-4.456;2023-07-13T12:37:01;27.73;49.92
74178;DHT22;62540;48.456;-4.456;2023-07-13T12:39:35;27.98;51.04
74178;DHT22;62540;48.456;-4.456;2023-07-13T12:42:24;28.08;48.44
74178;DHT22;62540;48.456;-4.456;2023-07-13T12:45:01;27.93;48.10
74178;DHT22;62540;48.456;-4.456;2023-07-13T12:47:28;27.90;49.35
74178;DHT22;62540;48.456;-4.456;2023-07-13T12:49:59;27.96;48.84
74178;DHT22;62540;48.456;-4.456;2023-07-13T12:52:34;27.97;49.50
74178;DHT22;62540;48.456;-4.456;2023-07-13T12:55:19;28.15;47.91
74178;DHT22;62540;48.456;-4.456;2023-07-13T12:57:53;28.36;48.52
74178;DHT22;62540;48.456;-4.456;2023-07-13T13:00:30;28.38;48.64
74178;DHT22;62540;48.456;-4.456;2023-07-13T13:03:22;28.39;47.63
74178;DHT22;62540;48.456;-4.456;2023-07-13T13:05:49;28.42;46.84
74178;DHT22;62540;48.456;-4.456;2023-07-13T13:08:14;28.32;48.16
74178;DHT22;62540;48.456;-4.456;2023-07-13T13:10:40;28.04;47.23
74178;DHT22;62540;48.456;-4.456;2023-07-13T13:13:05;27.98;48.31
74178;DHT22;62540;48.456;-4.456;2023-07-13T13:15:31;28.02;48.37
74178;DHT22;62540;48.456;-4.456;2023-07-13T13:17:56;28.14;46.94
74178;DHT22;62540;48.456;-4.456;2023-07-13T13:20:24;28.28;48.22
74178;DHT22;62540;48.456;-4.456;2023-07-13T13:22:53;28.28;47.05
74178;DHT22;62540;48.456;-4.456;2023-07-13T13:25:19;28.35;47.61
74178;DHT22;62540;48.456;-4.456;2023-07-13T13:27:45;28.42;47.34
74178;DHT22;62540;48.456;-4.456;2023-07-13T13:30:16;28.51;47.20
74178;DHT22;62540;48.456;-4.456;2023-07-13T13:32:43;28.59;47.59
74178;DHT22;62540;48.456;-4.456;2023-07-13T13:35:17;28.60;46.14
74178;DHT22;62540;48.456;-4.456;2023-07-13T13:37:43;28.48;47.06
74178;DHT22;62540;48.456;-4.456;2023-07-13T13:40:20;28.35;46.87
74178;DHT22;62540;48.456;-4.456;2023-07-13T13:42:46;28.22;47.57
74178;DHT22;62540;48.456;-4.456;2023-07-13T13:45:12;27.81;44.75
74178;DHT22;62540;48.456;-4.456;2023-07-13T13:47:39;27.66;47.25
74178;DHT22;62540;48.456;-4.456;2023-07-13T13:50:17;27.56;47.75
74178;DHT22;62540;48.456;-4.456;2023-07-13T13:52:43;27.40;48.08
74178;DHT22;62540;48.456;-4.456;2023-07-13T13:55:19;27.20;47.90
74178;DHT22;62540;48.456;-4.456;2023-07-13T13:57:46;27.12;48.10
74178;DHT22;62540;48.456;-4.456;2023-07-13T14:00:13;27.12;48.52
74178;DHT22;62540;48.456;-4.456;2023-07-13T14:02:41;27.16;48.76
74178;DHT22;62540;48.456;-4.456;2023-07-13T14:05:12;27.36;48.57
74178;DHT22;62540;48.456;-4.456;2023-07-13T14:07:37;27.33;47.98
74178;DHT22;62540;48.456;-4.456;2023-07-13T14:10:13;27.26;48.21
74178;DHT22;62540;48.456;-4.456;2023-07-13T14:12:41;27.08;47.18
74178;DHT22;62540;48.456;-4.456;2023-07-13T14:15:22;26.95;47.90
74178;DHT22;62540;48.456;-4.456;2023-07-13T14:17:47;26.95;48.13
74178;DHT22;62540;48.456;-4.456;2023-07-13T14:20:18;27.12;48.50
74178;DHT22;62540;48.456;-4.456;2023-07-13T14:22:44;27.26;48.19
74178;DHT22;62540;48.456;-4.456;2023-07-13T14:25:13;27.08;47.43
74178;DHT22;62540;48.456;-4.456;2023-07-13T14:27:40;26.81;47.84
74178;DHT22;62540;48.456;-4.456;2023-07-13T14:30:14;26.78;48.89
74178;DHT22;62540;48.456;-4.456;2023-07-13T14:32:40;26.85;49.15
74178;DHT22;62540;48.456;-4.456;2023-07-13T14:35:07;27.03;49.28
74178;DHT22;62540;48.456;-4.456;2023-07-13T14:37:33;27.20;49.22
74178;DHT22;62540;48.456;-4.456;2023-07-13T14:39:58;27.39;49.01
74178;DHT22;62540;48.456;-4.456;2023-07-13T14:42:23;27.35;48.31
74178;DHT22;62540;48.456;-4.456;2023-07-13T14:44:49;27.23;48.25
74178;DHT22;62540;48.456;-4.456;2023-07-13T14:47:14;27.26;48.38
74178;DHT22;62540;48.456;-4.456;2023-07-13T14:49:42;27.18;48.53
74178;DHT22;62540;48.456;-4.456;2023-07-13T14:52:12;27.25;48.95
74178;DHT22;62540;48.456;-4.456;2023-07-13T14:54:38;27.36;48.68
74178;DHT22;62540;48.456;-4.456;2023-07-13T14:57:10;27.39;48.77
74178;DHT22;62540;48.456;-4.456;2023-07-13T14:59:36;27.39;48.85
74178;DHT22;62540;48.456;-4.456;2023-07-13T15:02:02;27.53;49.15
74178;DHT22;62540;48.456;-4.456;2023-07-13T15:04:29;27.71;48.77
74178;DHT22;62540;48.456;-4.456;2023-07-13T15:07:00;27.83;48.02
74178;DHT22;62540;48.456;-4.456;2023-07-13T15:09:28;27.93;48.39
74178;DHT22;62540;48.456;-4.456;2023-07-13T15:11:56;27.96;48.01
74178;DHT22;62540;48.456;-4.456;2023-07-13T15:14:22;28.01;48.13
74178;DHT22;62540;48.456;-4.456;2023-07-13T15:16:52;28.05;47.88
74178;DHT22;62540;48.456;-4.456;2023-07-13T15:19:19;28.11;47.83
74178;DHT22;62540;48.456;-4.456;2023-07-13T15:21:46;28.18;47.69
74178;DHT22;62540;48.456;-4.456;2023-07-13T15:24:12;28.18;46.39
74178;DHT22;62540;48.456;-4.456;2023-07-13T15:26:38;27.76;46.03
74178;DHT22;62540;48.456;-4.456;2023-07-13T15:29:04;27.51;46.55
74178;DHT22;62540;48.456;-4.456;2023-07-13T15:31:31;27.32;47.01
74178;DHT22;62540;48.456;-4.456;2023-07-13T15:33:58;27.12;47.57
74178;DHT22;62540;48.456;-4.456;2023-07-13T15:36:24;27.11;47.94
74178;DHT22;62540;48.456;-4.456;2023-07-13T15:38:55;27.11;48.05
74178;DHT22;62540;48.456;-4.456;2023-07-13T15:41:22;27.11;48.16
74178;DHT22;62540;48.456;-4.456;2023-07-13T15:43:50;27.12;48.46
74178;DHT22;62540;48.456;-4.456;2023-07-13T15:46:20;27.22;48.51
74178;DHT22;62540;48.456;-4.456;2023-07-13T15:48:47;27.28;48.51
74178;DHT22;62540;48.456;-4.456;2023-07-13T15:51:23;27.25;48.72
74178;DHT22;62540;48.456;-4.456;2023-07-13T15:53:50;27.11;48.86
74178;DHT22;62540;48.456;-4.456;2023-07-13T15:56:21;26.91;48.67
74178;DHT22;62540;48.456;-4.456;2023-07-13T15:58:48;26.65;49.15
74178;DHT22;62540;48.456;-4.456;2023-07-13T16:01:14;26.65;49.49
74178;DHT22;62540;48.456;-4.456;2023-07-13T16:03:40;26.72;49.83
74178;DHT22;62540;48.456;-4.456;2023-07-13T16:06:19;26.68;49.33
74178;DHT22;62540;48.456;-4.456;2023-07-13T16:08:48;26.58;49.97
74178;DHT22;62540;48.456;-4.456;2023-07-13T16:11:26;26.64;49.97
74178;DHT22;62540;48.456;-4.456;2023-07-13T16:13:52;26.67;49.88
74178;DHT22;62540;48.456;-4.456;2023-07-13T16:16:26;26.65;49.98
74178;DHT22;62540;48.456;-4.456;2023-07-13T16:19:12;26.68;50.32
74178;DHT22;62540;48.456;-4.456;2023-07-13T16:21:44;26.45;50.80
74178;DHT22;62540;48.456;-4.456;2023-07-13T16:24:20;26.33;50.71